Terminal Aerodrome Forecast
Issued by NWS

Home | Current Version | Previous Version | Text Only | Print | Product List | Glossary On
Versions: 1 2 3 4 5 6 7 8 9 10 11 12 13 14 15
213
FTUS43 KMQT 110526
TAFSAW
TAF
KSAW 110526Z 1106/1206 31009KT P6SM VCSH OVC035
      TEMPO 1106/1108 4SM -SHSN BKN020
     FM111200 30007KT P6SM BKN070
     FM112200 27008KT P6SM SCT050
     FM120500 27007KT P6SM SCT050=

USA.gov is the U.S. government's official web portal to all federal, state and local government web resources and services.